sensor_id;sensor_type;location;lat;lon;timestamp;temperature;humidity
17208;DHT22;8720;48.488;9.202;2023-06-26T00:01:43;23.70;35.60
17208;DHT22;8720;48.488;9.202;2023-06-26T00:04:11;23.60;35.40
17208;DHT22;8720;48.488;9.202;2023-06-26T00:06:40;23.60;35.60
17208;DHT22;8720;48.488;9.202;2023-06-26T00:09:07;23.60;36.30
17208;DHT22;8720;48.488;9.202;2023-06-26T00:11:35;23.50;35.70
17208;DHT22;8720;48.488;9.202;2023-06-26T00:14:02;23.50;36.00
17208;DHT22;8720;48.488;9.202;2023-06-26T00:16:31;23.40;35.90
17208;DHT22;8720;48.488;9.202;2023-06-26T00:18:58;23.40;36.80
17208;DHT22;8720;48.488;9.202;2023-06-26T00:21:25;23.30;36.10
17208;DHT22;8720;48.488;9.202;2023-06-26T00:23:53;23.20;36.10
17208;DHT22;8720;48.488;9.202;2023-06-26T00:26:20;23.20;36.80
17208;DHT22;8720;48.488;9.202;2023-06-26T00:28:49;23.20;36.10
17208;DHT22;8720;48.488;9.202;2023-06-26T00:31:17;23.10;36.30
17208;DHT22;8720;48.488;9.202;2023-06-26T00:33:45;23.10;36.00
17208;DHT22;8720;48.488;9.202;2023-06-26T00:36:13;23.00;35.90
17208;DHT22;8720;48.488;9.202;2023-06-26T00:38:40;23.00;36.00
17208;DHT22;8720;48.488;9.202;2023-06-26T00:41:07;23.00;36.10
17208;DHT22;8720;48.488;9.202;2023-06-26T00:43:38;23.00;36.00
17208;DHT22;8720;48.488;9.202;2023-06-26T00:46:10;23.10;37.00
17208;DHT22;8720;48.488;9.202;2023-06-26T00:48:42;23.10;36.80
17208;DHT22;8720;48.488;9.202;2023-06-26T00:51:12;23.10;37.20
17208;DHT22;8720;48.488;9.202;2023-06-26T00:53:40;23.10;37.60
17208;DHT22;8720;48.488;9.202;2023-06-26T00:56:10;23.00;37.70
17208;DHT22;8720;48.488;9.202;2023-06-26T00:58:38;23.00;37.00
17208;DHT22;8720;48.488;9.202;2023-06-26T01:01:05;22.90;36.90
17208;DHT22;8720;48.488;9.202;2023-06-26T01:03:34;22.90;36.90
17208;DHT22;8720;48.488;9.202;2023-06-26T01:06:09;22.90;37.10
17208;DHT22;8720;48.488;9.202;2023-06-26T01:08:41;22.80;38.00
17208;DHT22;8720;48.488;9.202;2023-06-26T01:11:10;22.80;37.50
17208;DHT22;8720;48.488;9.202;2023-06-26T01:13:39;22.70;37.50
17208;DHT22;8720;48.488;9.202;2023-06-26T01:16:08;22.60;37.50
17208;DHT22;8720;48.488;9.202;2023-06-26T01:18:38;22.60;37.70
17208;DHT22;8720;48.488;9.202;2023-06-26T01:21:08;22.50;38.10
17208;DHT22;8720;48.488;9.202;2023-06-26T01:23:48;22.50;38.20
17208;DHT22;8720;48.488;9.202;2023-06-26T01:26:32;22.40;38.80
17208;DHT22;8720;48.488;9.202;2023-06-26T01:29:04;22.40;38.70
17208;DHT22;8720;48.488;9.202;2023-06-26T01:31:34;22.30;38.90
17208;DHT22;8720;48.488;9.202;2023-06-26T01:34:03;22.30;39.00
17208;DHT22;8720;48.488;9.202;2023-06-26T01:36:31;22.20;39.10
17208;DHT22;8720;48.488;9.202;2023-06-26T01:38:59;22.10;39.30
17208;DHT22;8720;48.488;9.202;2023-06-26T01:41:26;22.00;39.30
17208;DHT22;8720;48.488;9.202;2023-06-26T01:44:06;22.00;39.50
17208;DHT22;8720;48.488;9.202;2023-06-26T01:46:49;21.90;40.10
17208;DHT22;8720;48.488;9.202;2023-06-26T01:49:33;21.90;40.20
17208;DHT22;8720;48.488;9.202;2023-06-26T01:52:14;21.80;40.30
17208;DHT22;8720;48.488;9.202;2023-06-26T01:54:58;21.80;40.10
17208;DHT22;8720;48.488;9.202;2023-06-26T01:57:30;21.70;40.70
17208;DHT22;8720;48.488;9.202;2023-06-26T02:00:00;21.60;40.10
17208;DHT22;8720;48.488;9.202;2023-06-26T02:05:28;21.50;40.30
17208;DHT22;8720;48.488;9.202;2023-06-26T02:07:58;21.40;40.40
17208;DHT22;8720;48.488;9.202;2023-06-26T02:10:29;21.40;40.50
17208;DHT22;8720;48.488;9.202;2023-06-26T02:12:57;21.40;40.90
17208;DHT22;8720;48.488;9.202;2023-06-26T02:15:26;21.30;41.00
17208;DHT22;8720;48.488;9.202;2023-06-26T02:17:53;21.30;41.20
17208;DHT22;8720;48.488;9.202;2023-06-26T02:20:20;21.20;41.30
17208;DHT22;8720;48.488;9.202;2023-06-26T02:22:48;21.20;41.30
17208;DHT22;8720;48.488;9.202;2023-06-26T02:25:15;21.10;41.30
17208;DHT22;8720;48.488;9.202;2023-06-26T02:27:42;21.10;41.30
17208;DHT22;8720;48.488;9.202;2023-06-26T02:30:10;21.00;41.40
17208;DHT22;8720;48.488;9.202;2023-06-26T02:32:39;21.00;41.40
17208;DHT22;8720;48.488;9.202;2023-06-26T02:35:07;20.90;41.40
17208;DHT22;8720;48.488;9.202;2023-06-26T02:37:35;20.90;41.60
17208;DHT22;8720;48.488;9.202;2023-06-26T02:40:03;20.90;41.60
17208;DHT22;8720;48.488;9.202;2023-06-26T02:42:34;20.80;41.70
17208;DHT22;8720;48.488;9.202;2023-06-26T02:45:01;20.70;41.90
17208;DHT22;8720;48.488;9.202;2023-06-26T02:47:31;20.70;41.80
17208;DHT22;8720;48.488;9.202;2023-06-26T02:50:00;20.70;41.80
17208;DHT22;8720;48.488;9.202;2023-06-26T02:52:33;20.70;42.20
17208;DHT22;8720;48.488;9.202;2023-06-26T02:55:00;20.60;42.10
17208;DHT22;8720;48.488;9.202;2023-06-26T02:57:29;20.60;42.20
17208;DHT22;8720;48.488;9.202;2023-06-26T02:59:56;20.50;42.20
17208;DHT22;8720;48.488;9.202;2023-06-26T03:02:24;20.50;42.90
17208;DHT22;8720;48.488;9.202;2023-06-26T03:04:52;20.40;42.30
17208;DHT22;8720;48.488;9.202;2023-06-26T03:07:21;20.40;42.50
17208;DHT22;8720;48.488;9.202;2023-06-26T03:09:48;20.30;42.60
17208;DHT22;8720;48.488;9.202;2023-06-26T03:12:16;20.30;42.60
17208;DHT22;8720;48.488;9.202;2023-06-26T03:14:43;20.30;42.60
17208;DHT22;8720;48.488;9.202;2023-06-26T03:17:11;20.20;42.70
17208;DHT22;8720;48.488;9.202;2023-06-26T03:19:40;20.20;42.80
17208;DHT22;8720;48.488;9.202;2023-06-26T03:22:18;20.10;43.00
17208;DHT22;8720;48.488;9.202;2023-06-26T03:24:47;20.10;43.00
17208;DHT22;8720;48.488;9.202;2023-06-26T03:27:15;20.10;43.20
17208;DHT22;8720;48.488;9.202;2023-06-26T03:29:43;20.10;43.30
17208;DHT22;8720;48.488;9.202;2023-06-26T03:32:11;20.00;43.60
17208;DHT22;8720;48.488;9.202;2023-06-26T03:34:39;20.00;43.60
17208;DHT22;8720;48.488;9.202;2023-06-26T03:37:06;20.00;43.70
17208;DHT22;8720;48.488;9.202;2023-06-26T03:39:35;19.90;43.70
17208;DHT22;8720;48.488;9.202;2023-06-26T03:42:03;19.90;44.20
17208;DHT22;8720;48.488;9.202;2023-06-26T03:44:32;19.90;44.00
17208;DHT22;8720;48.488;9.202;2023-06-26T03:46:59;19.90;44.20
17208;DHT22;8720;48.488;9.202;2023-06-26T03:49:28;19.80;44.30
17208;DHT22;8720;48.488;9.202;2023-06-26T03:51:56;19.80;44.40
17208;DHT22;8720;48.488;9.202;2023-06-26T03:54:23;19.80;44.50
17208;DHT22;8720;48.488;9.202;2023-06-26T03:56:52;19.80;44.60
17208;DHT22;8720;48.488;9.202;2023-06-26T03:59:21;19.80;44.70
17208;DHT22;8720;48.488;9.202;2023-06-26T04:01:49;19.80;44.80
17208;DHT22;8720;48.488;9.202;2023-06-26T04:04:16;19.80;44.80
17208;DHT22;8720;48.488;9.202;2023-06-26T04:06:44;19.80;44.80
17208;DHT22;8720;48.488;9.202;2023-06-26T04:09:12;19.80;44.80
17208;DHT22;8720;48.488;9.202;2023-06-26T04:11:39;19.90;44.80
17208;DHT22;8720;48.488;9.202;2023-06-26T04:14:07;19.90;44.80
17208;DHT22;8720;48.488;9.202;2023-06-26T04:16:35;19.90;45.00
17208;DHT22;8720;48.488;9.202;2023-06-26T04:19:02;19.90;45.00
17208;DHT22;8720;48.488;9.202;2023-06-26T04:21:30;20.00;45.10
17208;DHT22;8720;48.488;9.202;2023-06-26T04:23:58;20.00;45.10
17208;DHT22;8720;48.488;9.202;2023-06-26T04:26:25;20.10;45.10
17208;DHT22;8720;48.488;9.202;2023-06-26T04:28:53;20.20;45.30
17208;DHT22;8720;48.488;9.202;2023-06-26T04:31:22;20.20;45.40
17208;DHT22;8720;48.488;9.202;2023-06-26T04:33:49;20.30;45.60
17208;DHT22;8720;48.488;9.202;2023-06-26T04:36:17;20.30;45.40
17208;DHT22;8720;48.488;9.202;2023-06-26T04:38:44;20.40;45.50
17208;DHT22;8720;48.488;9.202;2023-06-26T04:41:13;20.50;45.60
17208;DHT22;8720;48.488;9.202;2023-06-26T04:43:41;20.70;46.70
17208;DHT22;8720;48.488;9.202;2023-06-26T04:46:08;20.90;46.50
17208;DHT22;8720;48.488;9.202;2023-06-26T04:48:36;21.40;46.90
17208;DHT22;8720;48.488;9.202;2023-06-26T04:51:05;21.90;46.80
17208;DHT22;8720;48.488;9.202;2023-06-26T04:53:33;22.50;47.10
17208;DHT22;8720;48.488;9.202;2023-06-26T04:56:00;23.20;46.00
17208;DHT22;8720;48.488;9.202;2023-06-26T04:58:27;23.90;45.60
17208;DHT22;8720;48.488;9.202;2023-06-26T05:00:55;24.50;44.90
17208;DHT22;8720;48.488;9.202;2023-06-26T05:03:22;25.30;44.20
17208;DHT22;8720;48.488;9.202;2023-06-26T05:05:51;26.00;43.40
17208;DHT22;8720;48.488;9.202;2023-06-26T05:08:21;26.70;42.10
17208;DHT22;8720;48.488;9.202;2023-06-26T05:10:49;27.40;41.00
17208;DHT22;8720;48.488;9.202;2023-06-26T05:13:18;28.10;40.50
17208;DHT22;8720;48.488;9.202;2023-06-26T05:15:46;28.70;39.60
17208;DHT22;8720;48.488;9.202;2023-06-26T05:18:13;29.30;38.70
17208;DHT22;8720;48.488;9.202;2023-06-26T05:20:41;29.80;38.00
17208;DHT22;8720;48.488;9.202;2023-06-26T05:23:11;30.30;37.20
17208;DHT22;8720;48.488;9.202;2023-06-26T05:25:39;30.80;36.30
17208;DHT22;8720;48.488;9.202;2023-06-26T05:28:08;31.30;36.00
17208;DHT22;8720;48.488;9.202;2023-06-26T05:30:36;31.70;34.70
17208;DHT22;8720;48.488;9.202;2023-06-26T05:33:04;32.10;34.00
17208;DHT22;8720;48.488;9.202;2023-06-26T05:35:34;32.40;34.20
17208;DHT22;8720;48.488;9.202;2023-06-26T05:38:04;32.70;32.90
17208;DHT22;8720;48.488;9.202;2023-06-26T05:40:33;33.00;32.40
17208;DHT22;8720;48.488;9.202;2023-06-26T05:43:02;33.20;32.00
17208;DHT22;8720;48.488;9.202;2023-06-26T05:45:29;33.40;32.00
17208;DHT22;8720;48.488;9.202;2023-06-26T05:47:57;33.60;31.90
17208;DHT22;8720;48.488;9.202;2023-06-26T05:50:25;33.90;31.60
17208;DHT22;8720;48.488;9.202;2023-06-26T05:52:54;34.10;31.10
17208;DHT22;8720;48.488;9.202;2023-06-26T05:55:22;34.30;30.90
17208;DHT22;8720;48.488;9.202;2023-06-26T05:57:52;34.50;30.10
17208;DHT22;8720;48.488;9.202;2023-06-26T06:00:21;34.70;29.90
17208;DHT22;8720;48.488;9.202;2023-06-26T06:02:50;34.80;29.90
17208;DHT22;8720;48.488;9.202;2023-06-26T06:05:20;35.00;29.80
17208;DHT22;8720;48.488;9.202;2023-06-26T06:07:48;35.20;29.60
17208;DHT22;8720;48.488;9.202;2023-06-26T06:10:16;35.40;29.60
17208;DHT22;8720;48.488;9.202;2023-06-26T06:12:43;35.70;29.30
17208;DHT22;8720;48.488;9.202;2023-06-26T06:15:12;35.90;29.10
17208;DHT22;8720;48.488;9.202;2023-06-26T06:17:39;36.00;28.90
17208;DHT22;8720;48.488;9.202;2023-06-26T06:20:07;36.20;28.70
17208;DHT22;8720;48.488;9.202;2023-06-26T06:22:35;36.40;28.70
17208;DHT22;8720;48.488;9.202;2023-06-26T06:25:03;36.60;28.50
17208;DHT22;8720;48.488;9.202;2023-06-26T06:27:31;36.80;28.20
17208;DHT22;8720;48.488;9.202;2023-06-26T06:29:58;36.90;28.10
17208;DHT22;8720;48.488;9.202;2023-06-26T06:32:27;37.10;27.90
17208;DHT22;8720;48.488;9.202;2023-06-26T06:34:54;37.20;27.70
17208;DHT22;8720;48.488;9.202;2023-06-26T06:37:21;37.40;27.50
17208;DHT22;8720;48.488;9.202;2023-06-26T06:39:49;37.50;27.60
17208;DHT22;8720;48.488;9.202;2023-06-26T06:42:16;37.70;27.40
17208;DHT22;8720;48.488;9.202;2023-06-26T06:44:43;37.90;27.40
17208;DHT22;8720;48.488;9.202;2023-06-26T06:47:10;38.00;27.00
17208;DHT22;8720;48.488;9.202;2023-06-26T06:49:39;38.20;27.00
17208;DHT22;8720;48.488;9.202;2023-06-26T06:52:06;38.30;26.60
17208;DHT22;8720;48.488;9.202;2023-06-26T06:54:51;38.40;26.40
17208;DHT22;8720;48.488;9.202;2023-06-26T06:57:19;38.50;26.80
17208;DHT22;8720;48.488;9.202;2023-06-26T06:59:47;38.50;26.40
17208;DHT22;8720;48.488;9.202;2023-06-26T07:02:15;38.60;26.40
17208;DHT22;8720;48.488;9.202;2023-06-26T07:04:45;38.70;26.50
17208;DHT22;8720;48.488;9.202;2023-06-26T07:07:12;38.70;26.10
17208;DHT22;8720;48.488;9.202;2023-06-26T07:09:40;38.80;26.20
17208;DHT22;8720;48.488;9.202;2023-06-26T07:12:08;38.90;26.20
17208;DHT22;8720;48.488;9.202;2023-06-26T07:14:36;38.90;26.10
17208;DHT22;8720;48.488;9.202;2023-06-26T07:17:04;39.00;26.00
17208;DHT22;8720;48.488;9.202;2023-06-26T07:19:31;39.10;26.00
17208;DHT22;8720;48.488;9.202;2023-06-26T07:22:00;39.10;25.80
17208;DHT22;8720;48.488;9.202;2023-06-26T07:24:27;39.20;25.50
17208;DHT22;8720;48.488;9.202;2023-06-26T07:26:54;39.30;25.60
17208;DHT22;8720;48.488;9.202;2023-06-26T07:29:22;39.40;25.30
17208;DHT22;8720;48.488;9.202;2023-06-26T07:31:49;39.40;25.30
17208;DHT22;8720;48.488;9.202;2023-06-26T07:34:16;39.50;25.20
17208;DHT22;8720;48.488;9.202;2023-06-26T07:36:44;39.60;24.90
17208;DHT22;8720;48.488;9.202;2023-06-26T07:39:13;39.70;24.80
17208;DHT22;8720;48.488;9.202;2023-06-26T07:41:40;39.80;24.50
17208;DHT22;8720;48.488;9.202;2023-06-26T07:44:07;39.90;24.50
17208;DHT22;8720;48.488;9.202;2023-06-26T07:46:35;39.90;24.40
17208;DHT22;8720;48.488;9.202;2023-06-26T07:49:02;40.00;24.60
17208;DHT22;8720;48.488;9.202;2023-06-26T07:51:29;40.00;24.00
17208;DHT22;8720;48.488;9.202;2023-06-26T07:53:56;40.00;23.90
17208;DHT22;8720;48.488;9.202;2023-06-26T07:56:25;40.10;23.90
17208;DHT22;8720;48.488;9.202;2023-06-26T07:58:52;40.10;23.80
17208;DHT22;8720;48.488;9.202;2023-06-26T08:01:20;40.10;23.70
17208;DHT22;8720;48.488;9.202;2023-06-26T08:03:47;40.00;23.70
17208;DHT22;8720;48.488;9.202;2023-06-26T08:06:14;40.00;23.50
17208;DHT22;8720;48.488;9.202;2023-06-26T08:08:42;40.00;23.40
17208;DHT22;8720;48.488;9.202;2023-06-26T08:11:09;39.90;23.40
17208;DHT22;8720;48.488;9.202;2023-06-26T08:13:38;39.80;23.40
17208;DHT22;8720;48.488;9.202;2023-06-26T08:16:05;39.70;23.60
17208;DHT22;8720;48.488;9.202;2023-06-26T08:18:32;39.60;23.50
17208;DHT22;8720;48.488;9.202;2023-06-26T08:21:00;39.60;23.70
17208;DHT22;8720;48.488;9.202;2023-06-26T08:23:27;39.60;23.70
17208;DHT22;8720;48.488;9.202;2023-06-26T08:25:54;39.60;23.60
17208;DHT22;8720;48.488;9.202;2023-06-26T08:28:24;39.60;23.70
17208;DHT22;8720;48.488;9.202;2023-06-26T08:30:53;39.60;23.90
17208;DHT22;8720;48.488;9.202;2023-06-26T08:33:20;39.60;23.50
17208;DHT22;8720;48.488;9.202;2023-06-26T08:35:47;39.60;23.50
17208;DHT22;8720;48.488;9.202;2023-06-26T08:38:15;39.60;23.30
17208;DHT22;8720;48.488;9.202;2023-06-26T08:40:42;39.50;23.30
17208;DHT22;8720;48.488;9.202;2023-06-26T08:43:10;39.50;23.60
17208;DHT22;8720;48.488;9.202;2023-06-26T08:45:37;39.50;23.60
17208;DHT22;8720;48.488;9.202;2023-06-26T08:48:08;39.50;23.40
17208;DHT22;8720;48.488;9.202;2023-06-26T08:50:38;39.40;23.40
17208;DHT22;8720;48.488;9.202;2023-06-26T08:53:12;39.40;23.30
17208;DHT22;8720;48.488;9.202;2023-06-26T08:55:49;39.30;23.20
17208;DHT22;8720;48.488;9.202;2023-06-26T08:58:19;39.30;23.40
17208;DHT22;8720;48.488;9.202;2023-06-26T09:00:47;39.30;23.50
17208;DHT22;8720;48.488;9.202;2023-06-26T09:03:17;39.30;23.50
17208;DHT22;8720;48.488;9.202;2023-06-26T09:05:44;39.30;23.50
17208;DHT22;8720;48.488;9.202;2023-06-26T09:08:12;39.30;23.50
17208;DHT22;8720;48.488;9.202;2023-06-26T09:10:40;39.30;23.60
17208;DHT22;8720;48.488;9.202;2023-06-26T09:13:07;39.20;23.60
17208;DHT22;8720;48.488;9.202;2023-06-26T09:15:38;39.10;23.40
17208;DHT22;8720;48.488;9.202;2023-06-26T09:18:10;39.00;23.60
17208;DHT22;8720;48.488;9.202;2023-06-26T09:20:38;38.90;23.40
17208;DHT22;8720;48.488;9.202;2023-06-26T09:23:06;38.70;23.80
17208;DHT22;8720;48.488;9.202;2023-06-26T09:25:33;38.60;23.50
17208;DHT22;8720;48.488;9.202;2023-06-26T09:28:05;38.50;23.50
17208;DHT22;8720;48.488;9.202;2023-06-26T09:30:33;38.40;23.90
17208;DHT22;8720;48.488;9.202;2023-06-26T09:33:13;38.30;23.70
17208;DHT22;8720;48.488;9.202;2023-06-26T09:35:44;38.20;24.00
17208;DHT22;8720;48.488;9.202;2023-06-26T09:38:13;38.10;23.70
17208;DHT22;8720;48.488;9.202;2023-06-26T09:40:41;38.00;23.80
17208;DHT22;8720;48.488;9.202;2023-06-26T09:43:12;38.00;23.80
17208;DHT22;8720;48.488;9.202;2023-06-26T09:45:40;37.80;23.90
17208;DHT22;8720;48.488;9.202;2023-06-26T09:48:08;37.70;23.90
17208;DHT22;8720;48.488;9.202;2023-06-26T09:50:35;37.70;23.80
17208;DHT22;8720;48.488;9.202;2023-06-26T09:53:09;37.60;23.70
17208;DHT22;8720;48.488;9.202;2023-06-26T09:55:37;37.50;23.70
17208;DHT22;8720;48.488;9.202;2023-06-26T09:58:06;37.50;23.90
17208;DHT22;8720;48.488;9.202;2023-06-26T10:00:34;37.40;24.10
17208;DHT22;8720;48.488;9.202;2023-06-26T10:03:03;37.30;23.90
17208;DHT22;8720;48.488;9.202;2023-06-26T10:05:30;37.20;24.00
17208;DHT22;8720;48.488;9.202;2023-06-26T10:07:58;37.10;24.20
17208;DHT22;8720;48.488;9.202;2023-06-26T10:10:29;37.10;24.20
17208;DHT22;8720;48.488;9.202;2023-06-26T10:13:04;37.00;24.30
17208;DHT22;8720;48.488;9.202;2023-06-26T10:15:35;37.00;24.50
17208;DHT22;8720;48.488;9.202;2023-06-26T10:18:04;36.90;24.40
17208;DHT22;8720;48.488;9.202;2023-06-26T10:20:32;36.90;24.40
17208;DHT22;8720;48.488;9.202;2023-06-26T10:23:02;36.80;24.40
17208;DHT22;8720;48.488;9.202;2023-06-26T10:25:34;36.70;24.70
17208;DHT22;8720;48.488;9.202;2023-06-26T10:28:04;36.60;24.50
17208;DHT22;8720;48.488;9.202;2023-06-26T10:30:34;36.60;24.60
17208;DHT22;8720;48.488;9.202;2023-06-26T10:33:04;36.40;24.70
17208;DHT22;8720;48.488;9.202;2023-06-26T10:35:33;36.30;24.50
17208;DHT22;8720;48.488;9.202;2023-06-26T10:38:07;36.30;24.80
17208;DHT22;8720;48.488;9.202;2023-06-26T10:40:43;36.20;24.80
17208;DHT22;8720;48.488;9.202;2023-06-26T10:43:13;36.10;24.70
17208;DHT22;8720;48.488;9.202;2023-06-26T10:45:45;36.10;24.90
17208;DHT22;8720;48.488;9.202;2023-06-26T10:48:17;36.10;24.80
17208;DHT22;8720;48.488;9.202;2023-06-26T10:50:47;36.10;24.90
17208;DHT22;8720;48.488;9.202;2023-06-26T10:53:21;36.00;25.00
17208;DHT22;8720;48.488;9.202;2023-06-26T10:55:56;36.10;25.10
17208;DHT22;8720;48.488;9.202;2023-06-26T10:58:33;36.10;24.80
17208;DHT22;8720;48.488;9.202;2023-06-26T11:01:20;36.10;25.00
17208;DHT22;8720;48.488;9.202;2023-06-26T11:04:00;36.10;24.70
17208;DHT22;8720;48.488;9.202;2023-06-26T11:06:30;36.00;24.60
17208;DHT22;8720;48.488;9.202;2023-06-26T11:09:00;36.00;24.90
17208;DHT22;8720;48.488;9.202;2023-06-26T11:11:56;35.90;24.90
17208;DHT22;8720;48.488;9.202;2023-06-26T11:14:34;35.90;25.40
17208;DHT22;8720;48.488;9.202;2023-06-26T11:17:03;35.80;25.40
17208;DHT22;8720;48.488;9.202;2023-06-26T11:19:31;35.80;25.40
17208;DHT22;8720;48.488;9.202;2023-06-26T11:22:07;35.70;25.40
17208;DHT22;8720;48.488;9.202;2023-06-26T11:24:36;35.70;25.70
17208;DHT22;8720;48.488;9.202;2023-06-26T11:27:05;35.60;25.70
17208;DHT22;8720;48.488;9.202;2023-06-26T11:29:32;35.50;25.80
17208;DHT22;8720;48.488;9.202;2023-06-26T11:32:02;35.40;26.00
17208;DHT22;8720;48.488;9.202;2023-06-26T11:34:33;35.40;26.10
17208;DHT22;8720;48.488;9.202;2023-06-26T11:37:01;35.30;26.20
17208;DHT22;8720;48.488;9.202;2023-06-26T11:39:29;35.30;26.30
17208;DHT22;8720;48.488;9.202;2023-06-26T11:41:58;35.30;26.30
17208;DHT22;8720;48.488;9.202;2023-06-26T11:44:39;35.30;26.30
17208;DHT22;8720;48.488;9.202;2023-06-26T11:47:12;35.20;26.50
17208;DHT22;8720;48.488;9.202;2023-06-26T11:49:42;35.20;26.90
17208;DHT22;8720;48.488;9.202;2023-06-26T11:52:10;35.20;26.80
17208;DHT22;8720;48.488;9.202;2023-06-26T11:54:37;35.10;26.80
17208;DHT22;8720;48.488;9.202;2023-06-26T11:57:05;35.10;26.90
17208;DHT22;8720;48.488;9.202;2023-06-26T11:59:38;35.10;27.20
17208;DHT22;8720;48.488;9.202;2023-06-26T12:02:07;35.10;27.40
17208;DHT22;8720;48.488;9.202;2023-06-26T12:04:37;35.10;27.20
17208;DHT22;8720;48.488;9.202;2023-06-26T12:07:08;35.10;27.20
17208;DHT22;8720;48.488;9.202;2023-06-26T12:09:39;35.10;27.30
17208;DHT22;8720;48.488;9.202;2023-06-26T12:12:09;35.00;27.20
17208;DHT22;8720;48.488;9.202;2023-06-26T12:14:39;34.90;27.30
17208;DHT22;8720;48.488;9.202;2023-06-26T12:17:09;34.80;28.00
17208;DHT22;8720;48.488;9.202;2023-06-26T12:19:42;34.80;27.60
17208;DHT22;8720;48.488;9.202;2023-06-26T12:22:10;34.70;27.60
17208;DHT22;8720;48.488;9.202;2023-06-26T12:24:38;34.60;27.40
17208;DHT22;8720;48.488;9.202;2023-06-26T12:27:09;34.60;27.60
17208;DHT22;8720;48.488;9.202;2023-06-26T12:29:39;34.50;27.50
17208;DHT22;8720;48.488;9.202;2023-06-26T12:32:14;34.50;27.80
17208;DHT22;8720;48.488;9.202;2023-06-26T12:34:41;34.40;27.70
17208;DHT22;8720;48.488;9.202;2023-06-26T12:37:13;34.40;28.00
17208;DHT22;8720;48.488;9.202;2023-06-26T12:39:50;34.40;28.10
17208;DHT22;8720;48.488;9.202;2023-06-26T12:42:20;34.30;28.00
17208;DHT22;8720;48.488;9.202;2023-06-26T12:44:51;34.30;28.00
17208;DHT22;8720;48.488;9.202;2023-06-26T12:47:24;34.30;28.20
17208;DHT22;8720;48.488;9.202;2023-06-26T12:49:53;34.20;28.00
17208;DHT22;8720;48.488;9.202;2023-06-26T12:52:22;34.20;28.20
17208;DHT22;8720;48.488;9.202;2023-06-26T12:54:52;34.20;28.20
17208;DHT22;8720;48.488;9.202;2023-06-26T12:57:21;34.20;28.30
17208;DHT22;8720;48.488;9.202;2023-06-26T12:59:50;34.10;28.20
17208;DHT22;8720;48.488;9.202;2023-06-26T13:02:18;34.10;28.40
17208;DHT22;8720;48.488;9.202;2023-06-26T13:04:45;34.10;28.50
17208;DHT22;8720;48.488;9.202;2023-06-26T13:07:13;34.00;28.70
17208;DHT22;8720;48.488;9.202;2023-06-26T13:09:41;34.00;28.90
17208;DHT22;8720;48.488;9.202;2023-06-26T13:12:11;34.00;28.70
17208;DHT22;8720;48.488;9.202;2023-06-26T13:14:38;34.00;28.80
17208;DHT22;8720;48.488;9.202;2023-06-26T13:17:07;34.00;28.90
17208;DHT22;8720;48.488;9.202;2023-06-26T13:19:34;34.00;29.10
17208;DHT22;8720;48.488;9.202;2023-06-26T13:22:02;33.90;29.20
17208;DHT22;8720;48.488;9.202;2023-06-26T13:24:29;33.90;29.30
17208;DHT22;8720;48.488;9.202;2023-06-26T13:26:57;33.90;29.30
17208;DHT22;8720;48.488;9.202;2023-06-26T13:29:25;33.90;29.20
17208;DHT22;8720;48.488;9.202;2023-06-26T13:31:52;33.90;29.30
17208;DHT22;8720;48.488;9.202;2023-06-26T13:34:22;33.90;29.30
17208;DHT22;8720;48.488;9.202;2023-06-26T13:36:53;33.90;29.60
17208;DHT22;8720;48.488;9.202;2023-06-26T13:39:21;33.90;29.50
17208;DHT22;8720;48.488;9.202;2023-06-26T13:41:48;33.90;29.50
17208;DHT22;8720;48.488;9.202;2023-06-26T13:44:16;33.80;29.50
17208;DHT22;8720;48.488;9.202;2023-06-26T13:46:43;33.80;29.60
17208;DHT22;8720;48.488;9.202;2023-06-26T13:49:10;33.80;29.80
17208;DHT22;8720;48.488;9.202;2023-06-26T13:51:39;33.70;29.80
17208;DHT22;8720;48.488;9.202;2023-06-26T13:54:11;33.70;29.90
17208;DHT22;8720;48.488;9.202;2023-06-26T13:56:38;33.70;30.50
17208;DHT22;8720;48.488;9.202;2023-06-26T13:59:05;33.70;30.00
17208;DHT22;8720;48.488;9.202;2023-06-26T14:01:33;33.70;29.80
17208;DHT22;8720;48.488;9.202;2023-06-26T14:04:00;33.70;29.60
17208;DHT22;8720;48.488;9.202;2023-06-26T14:06:27;33.70;29.70
17208;DHT22;8720;48.488;9.202;2023-06-26T14:08:57;33.60;29.60
17208;DHT22;8720;48.488;9.202;2023-06-26T14:11:25;33.60;29.80
17208;DHT22;8720;48.488;9.202;2023-06-26T14:13:53;33.50;29.80
17208;DHT22;8720;48.488;9.202;2023-06-26T14:16:20;33.50;29.80
17208;DHT22;8720;48.488;9.202;2023-06-26T14:18:47;33.40;29.70
17208;DHT22;8720;48.488;9.202;2023-06-26T14:21:15;33.30;29.70
17208;DHT22;8720;48.488;9.202;2023-06-26T14:23:43;33.30;29.80
17208;DHT22;8720;48.488;9.202;2023-06-26T14:26:11;33.20;30.00
17208;DHT22;8720;48.488;9.202;2023-06-26T14:28:39;33.10;30.00
17208;DHT22;8720;48.488;9.202;2023-06-26T14:31:06;33.00;29.90
17208;DHT22;8720;48.488;9.202;2023-06-26T14:33:33;33.00;30.00
17208;DHT22;8720;48.488;9.202;2023-06-26T14:36:01;33.00;30.00
17208;DHT22;8720;48.488;9.202;2023-06-26T14:38:28;32.90;30.00
17208;DHT22;8720;48.488;9.202;2023-06-26T14:40:55;32.80;29.90
17208;DHT22;8720;48.488;9.202;2023-06-26T14:43:24;32.70;30.00
17208;DHT22;8720;48.488;9.202;2023-06-26T14:45:51;32.70;30.10
17208;DHT22;8720;48.488;9.202;2023-06-26T14:48:19;32.70;30.00
17208;DHT22;8720;48.488;9.202;2023-06-26T14:50:46;32.60;30.00
17208;DHT22;8720;48.488;9.202;2023-06-26T14:53:13;32.60;30.00
17208;DHT22;8720;48.488;9.202;2023-06-26T14:55:40;32.60;30.00
17208;DHT22;8720;48.488;9.202;2023-06-26T14:58:08;32.60;30.50
17208;DHT22;8720;48.488;9.202;2023-06-26T15:00:36;32.50;29.70
17208;DHT22;8720;48.488;9.202;2023-06-26T15:03:04;32.50;29.60
17208;DHT22;8720;48.488;9.202;2023-06-26T15:05:31;32.50;29.70
17208;DHT22;8720;48.488;9.202;2023-06-26T15:07:58;32.50;29.80
17208;DHT22;8720;48.488;9.202;2023-06-26T15:10:26;32.50;30.20
17208;DHT22;8720;48.488;9.202;2023-06-26T15:12:53;32.50;29.70
17208;DHT22;8720;48.488;9.202;2023-06-26T15:15:20;32.40;29.70
17208;DHT22;8720;48.488;9.202;2023-06-26T15:17:49;32.40;29.60
17208;DHT22;8720;48.488;9.202;2023-06-26T15:20:16;32.40;29.70
17208;DHT22;8720;48.488;9.202;2023-06-26T15:22:44;32.40;29.60
17208;DHT22;8720;48.488;9.202;2023-06-26T15:25:11;32.30;29.50
17208;DHT22;8720;48.488;9.202;2023-06-26T15:27:38;32.30;29.40
17208;DHT22;8720;48.488;9.202;2023-06-26T15:30:07;32.30;29.50
17208;DHT22;8720;48.488;9.202;2023-06-26T15:32:35;32.30;29.70
17208;DHT22;8720;48.488;9.202;2023-06-26T15:35:04;32.30;29.70
17208;DHT22;8720;48.488;9.202;2023-06-26T15:37:32;32.30;29.60
17208;DHT22;8720;48.488;9.202;2023-06-26T15:39:59;32.20;29.60
17208;DHT22;8720;48.488;9.202;2023-06-26T15:42:27;32.20;29.60
17208;DHT22;8720;48.488;9.202;2023-06-26T15:44:55;32.10;29.50
17208;DHT22;8720;48.488;9.202;2023-06-26T15:47:22;32.10;29.50
17208;DHT22;8720;48.488;9.202;2023-06-26T15:49:49;32.10;29.70
17208;DHT22;8720;48.488;9.202;2023-06-26T15:52:18;32.00;29.60
17208;DHT22;8720;48.488;9.202;2023-06-26T15:54:45;32.00;29.60
17208;DHT22;8720;48.488;9.202;2023-06-26T15:57:13;31.90;30.10
17208;DHT22;8720;48.488;9.202;2023-06-26T15:59:40;31.90;29.70